createdAt,value
2022-12-31T00:00:46.038Z,489.00
2022-12-31T00:01:46.008Z,489.00
2022-12-31T00:02:46.105Z,488.00
2022-12-31T00:03:45.988Z,487.00
2022-12-31T00:04:46.007Z,487.00
2022-12-31T00:05:45.970Z,488.00
2022-12-31T00:06:45.970Z,489.00
2022-12-31T00:07:45.945Z,488.00
2022-12-31T00:08:45.957Z,487.00
2022-12-31T00:09:45.949Z,486.00
2022-12-31T00:10:45.920Z,486.00
2022-12-31T00:11:45.927Z,486.00
2022-12-31T00:12:45.912Z,487.00
2022-12-31T00:13:45.908Z,487.00
2022-12-31T00:14:45.926Z,485.00
2022-12-31T00:15:45.899Z,485.00
2022-12-31T00:16:45.895Z,487.00
2022-12-31T00:17:45.862Z,485.00
2022-12-31T00:18:45.851Z,484.00
2022-12-31T00:19:45.848Z,484.00
2022-12-31T00:20:45.858Z,480.00
2022-12-31T00:21:45.839Z,479.00
2022-12-31T00:22:45.818Z,478.00
2022-12-31T00:23:45.827Z,477.00
2022-12-31T00:24:45.826Z,477.00
2022-12-31T00:25:45.794Z,480.00
2022-12-31T00:26:45.786Z,478.00
2022-12-31T00:27:45.780Z,476.00
2022-12-31T00:28:45.780Z,476.00
2022-12-31T00:29:45.774Z,479.00
2022-12-31T00:30:45.800Z,479.00
2022-12-31T00:31:45.733Z,480.00
2022-12-31T00:32:45.744Z,482.00
2022-12-31T00:33:45.746Z,480.00
2022-12-31T00:34:45.728Z,480.00
2022-12-31T00:35:45.710Z,478.00
2022-12-31T00:36:45.690Z,478.00
2022-12-31T00:37:45.700Z,477.00
2022-12-31T00:38:45.723Z,478.00
2022-12-31T00:39:45.678Z,478.00
2022-12-31T00:40:45.668Z,478.00
2022-12-31T00:41:45.654Z,482.00
2022-12-31T00:42:45.660Z,477.00
2022-12-31T00:43:45.660Z,475.00
2022-12-31T00:44:45.631Z,476.00
2022-12-31T00:45:45.658Z,475.00
2022-12-31T00:46:45.610Z,477.00
2022-12-31T00:47:45.625Z,475.00
2022-12-31T00:48:45.604Z,474.00
2022-12-31T00:49:45.598Z,474.00
2022-12-31T00:50:45.601Z,476.00
2022-12-31T00:51:45.561Z,478.00
2022-12-31T00:52:45.571Z,476.00
2022-12-31T00:53:45.558Z,476.00
2022-12-31T00:54:45.579Z,474.00
2022-12-31T00:55:45.564Z,474.00
2022-12-31T00:56:45.560Z,478.00
2022-12-31T00:57:45.518Z,479.00
2022-12-31T00:58:45.517Z,477.00
2022-12-31T00:59:45.513Z,477.00
2022-12-31T01:00:45.502Z,476.00
2022-12-31T01:01:45.644Z,473.00
2022-12-31T01:02:45.594Z,474.00
2022-12-31T01:03:45.468Z,473.00
2022-12-31T01:04:45.457Z,471.00
2022-12-31T01:05:45.442Z,472.00
2022-12-31T01:06:45.470Z,470.00
2022-12-31T01:07:45.437Z,470.00
2022-12-31T01:08:45.431Z,469.00
2022-12-31T01:09:45.441Z,470.00
2022-12-31T01:10:45.412Z,470.00
2022-12-31T01:11:45.400Z,469.00
2022-12-31T01:12:45.392Z,469.00
2022-12-31T01:13:45.379Z,468.00
2022-12-31T01:14:45.397Z,467.00
2022-12-31T01:15:45.408Z,466.00
2022-12-31T01:16:45.378Z,465.00
2022-12-31T01:17:45.372Z,465.00
2022-12-31T01:18:45.343Z,467.00
2022-12-31T01:19:45.322Z,467.00
2022-12-31T01:20:45.429Z,467.00
2022-12-31T01:21:45.338Z,468.00
2022-12-31T01:22:45.301Z,467.00
2022-12-31T01:23:45.292Z,467.00
2022-12-31T01:24:45.310Z,466.00
2022-12-31T01:25:45.277Z,466.00
2022-12-31T01:26:45.264Z,467.00
2022-12-31T01:27:45.253Z,470.00
2022-12-31T01:28:45.268Z,467.00
2022-12-31T01:29:45.284Z,468.00
2022-12-31T01:30:45.283Z,468.00
2022-12-31T01:31:45.227Z,467.00
2022-12-31T01:32:45.216Z,467.00
2022-12-31T01:33:45.206Z,467.00
2022-12-31T01:34:45.217Z,466.00
2022-12-31T01:35:45.192Z,466.00
2022-12-31T01:36:45.200Z,467.00
2022-12-31T01:37:45.164Z,466.00
2022-12-31T01:38:45.169Z,468.00
2022-12-31T01:39:45.155Z,470.00
2022-12-31T01:40:45.155Z,473.00
2022-12-31T01:41:45.204Z,469.00
2022-12-31T01:42:45.125Z,479.00
2022-12-31T01:43:45.121Z,501.00
2022-12-31T01:44:45.108Z,503.00
2022-12-31T01:45:45.107Z,499.00
2022-12-31T01:46:45.160Z,496.00
2022-12-31T01:47:45.077Z,503.00
2022-12-31T01:48:45.072Z,507.00
2022-12-31T01:49:45.088Z,508.00
2022-12-31T01:50:45.068Z,508.00
2022-12-31T01:51:45.048Z,507.00
2022-12-31T01:52:45.072Z,507.00
2022-12-31T01:53:45.043Z,506.00
2022-12-31T01:54:45.024Z,509.00
2022-12-31T01:55:45.018Z,513.00
2022-12-31T01:56:45.025Z,514.00
2022-12-31T01:57:45.037Z,516.00
2022-12-31T01:58:45.005Z,515.00
2022-12-31T01:59:44.995Z,518.00
2022-12-31T02:00:44.986Z,516.00
2022-12-31T02:01:45.082Z,514.00
2022-12-31T02:02:44.993Z,512.00
2022-12-31T02:03:44.947Z,513.00
2022-12-31T02:04:44.940Z,514.00
2022-12-31T02:05:44.937Z,511.00
2022-12-31T02:06:44.925Z,510.00
2022-12-31T02:07:44.936Z,513.00
2022-12-31T02:08:44.914Z,515.00
2022-12-31T02:09:44.895Z,516.00
2022-12-31T02:10:44.887Z,516.00
2022-12-31T02:11:44.870Z,516.00
2022-12-31T02:12:44.880Z,515.00
2022-12-31T02:13:44.879Z,515.00
2022-12-31T02:14:44.860Z,516.00
2022-12-31T02:15:44.914Z,518.00
2022-12-31T02:16:44.838Z,521.00
2022-12-31T02:17:44.879Z,526.00
2022-12-31T02:18:44.807Z,527.00
2022-12-31T02:19:44.808Z,526.00
2022-12-31T02:20:44.832Z,526.00
2022-12-31T02:21:44.787Z,526.00
2022-12-31T02:22:44.780Z,528.00
2022-12-31T02:23:44.769Z,527.00
2022-12-31T02:24:44.750Z,532.00
2022-12-31T02:25:44.771Z,534.00
2022-12-31T02:26:44.748Z,528.00
2022-12-31T02:27:44.763Z,527.00
2022-12-31T02:28:44.725Z,527.00
2022-12-31T02:29:44.724Z,530.00
2022-12-31T02:30:44.725Z,531.00
2022-12-31T02:31:44.754Z,533.00
2022-12-31T02:32:44.700Z,536.00
2022-12-31T02:33:44.716Z,536.00
2022-12-31T02:34:44.697Z,536.00
2022-12-31T02:35:44.663Z,536.00
2022-12-31T02:36:44.673Z,537.00
2022-12-31T02:37:44.673Z,539.00
2022-12-31T02:38:44.660Z,537.00
2022-12-31T02:39:44.643Z,540.00
2022-12-31T02:40:44.636Z,541.00
2022-12-31T02:41:44.637Z,544.00
2022-12-31T02:42:47.420Z,547.00
2022-12-31T02:43:45.603Z,548.00
2022-12-31T02:44:44.586Z,553.00
2022-12-31T02:45:44.575Z,554.00
2022-12-31T02:46:44.650Z,552.00
2022-12-31T02:47:44.568Z,546.00
2022-12-31T02:48:44.553Z,547.00
2022-12-31T02:49:44.578Z,548.00
2022-12-31T02:50:44.542Z,550.00
2022-12-31T02:51:44.524Z,548.00
2022-12-31T02:52:44.532Z,551.00
2022-12-31T02:53:44.539Z,552.00
2022-12-31T02:54:44.504Z,555.00
2022-12-31T02:55:44.488Z,554.00
2022-12-31T02:56:44.486Z,554.00
2022-12-31T02:57:44.490Z,555.00
2022-12-31T02:58:44.504Z,556.00
2022-12-31T02:59:44.484Z,552.00
2022-12-31T03:00:44.474Z,554.00
2022-12-31T03:01:44.549Z,555.00
2022-12-31T03:02:44.485Z,555.00
2022-12-31T03:03:44.418Z,559.00
2022-12-31T03:04:44.442Z,560.00
2022-12-31T03:05:44.419Z,560.00
2022-12-31T03:06:44.422Z,561.00
2022-12-31T03:07:44.394Z,561.00
2022-12-31T03:08:44.388Z,559.00
2022-12-31T03:09:44.373Z,560.00
2022-12-31T03:10:44.382Z,560.00
2022-12-31T03:11:44.377Z,561.00
2022-12-31T03:12:44.351Z,566.00
2022-12-31T03:13:44.351Z,567.00
2022-12-31T03:14:44.357Z,569.00
2022-12-31T03:15:44.339Z,568.00
2022-12-31T03:16:44.307Z,571.00
2022-12-31T03:17:44.312Z,575.00
2022-12-31T03:18:44.289Z,575.00
2022-12-31T03:19:44.300Z,577.00
2022-12-31T03:20:44.308Z,578.00
2022-12-31T03:21:44.277Z,576.00
2022-12-31T03:22:44.267Z,573.00
2022-12-31T03:23:44.253Z,574.00
2022-12-31T03:24:44.238Z,576.00
2022-12-31T03:25:44.290Z,580.00
2022-12-31T03:26:44.226Z,581.00
2022-12-31T03:27:44.224Z,582.00
2022-12-31T03:28:44.215Z,581.00
2022-12-31T03:29:44.225Z,585.00
2022-12-31T03:30:44.228Z,587.00
2022-12-31T03:31:44.233Z,589.00
2022-12-31T03:32:44.168Z,596.00
2022-12-31T03:33:44.180Z,593.00
2022-12-31T03:34:44.178Z,592.00
2022-12-31T03:35:44.162Z,594.00
2022-12-31T03:36:44.163Z,594.00
2022-12-31T03:37:44.144Z,594.00
2022-12-31T03:38:48.464Z,596.00
2022-12-31T03:39:45.117Z,594.00
2022-12-31T03:40:44.132Z,596.00
2022-12-31T03:41:44.093Z,598.00
2022-12-31T03:42:44.099Z,600.00
2022-12-31T03:43:44.170Z,598.00
2022-12-31T03:44:44.096Z,599.00
2022-12-31T03:45:44.146Z,599.00
2022-12-31T03:46:44.058Z,598.00
2022-12-31T03:47:44.068Z,600.00
2022-12-31T03:48:44.032Z,602.00
2022-12-31T03:49:44.073Z,604.00
2022-12-31T03:50:44.018Z,604.00
2022-12-31T03:51:44.035Z,606.00
2022-12-31T03:52:44.002Z,608.00
2022-12-31T03:53:43.994Z,610.00
2022-12-31T03:54:44.015Z,611.00
2022-12-31T03:55:43.994Z,613.00
2022-12-31T03:56:43.970Z,616.00
2022-12-31T03:57:43.970Z,618.00
2022-12-31T03:58:43.976Z,620.00
2022-12-31T03:59:43.966Z,620.00
2022-12-31T04:00:44.025Z,620.00
2022-12-31T04:01:44.089Z,619.00
2022-12-31T04:02:43.953Z,620.00
2022-12-31T04:03:43.938Z,621.00
2022-12-31T04:04:43.908Z,620.00
2022-12-31T04:05:43.918Z,623.00
2022-12-31T04:06:43.883Z,623.00
2022-12-31T04:07:43.883Z,622.00
2022-12-31T04:08:43.896Z,621.00
2022-12-31T04:09:43.861Z,621.00
2022-12-31T04:10:43.855Z,625.00
2022-12-31T04:11:43.848Z,629.00
2022-12-31T04:12:43.864Z,630.00
2022-12-31T04:13:43.831Z,632.00
2022-12-31T04:14:43.813Z,633.00
2022-12-31T04:15:43.836Z,631.00
2022-12-31T04:16:43.840Z,633.00
2022-12-31T04:17:43.822Z,635.00
2022-12-31T04:18:43.775Z,634.00
2022-12-31T04:19:43.778Z,632.00
2022-12-31T04:20:43.807Z,632.00
2022-12-31T04:21:43.771Z,633.00
2022-12-31T04:22:43.765Z,634.00
2022-12-31T04:23:43.769Z,636.00
2022-12-31T04:24:43.728Z,638.00
2022-12-31T04:25:43.728Z,640.00
2022-12-31T04:26:43.727Z,642.00
2022-12-31T04:27:43.935Z,644.00
2022-12-31T04:28:43.700Z,645.00
2022-12-31T04:29:43.694Z,645.00
2022-12-31T04:30:43.678Z,646.00
2022-12-31T04:31:43.725Z,650.00
2022-12-31T04:32:43.673Z,649.00
2022-12-31T04:33:43.657Z,650.00
2022-12-31T04:34:43.674Z,650.00
2022-12-31T04:35:43.633Z,651.00
2022-12-31T04:36:43.650Z,653.00
2022-12-31T04:37:43.644Z,652.00
2022-12-31T04:38:43.634Z,649.00
2022-12-31T04:39:43.607Z,648.00
2022-12-31T04:40:43.598Z,646.00
2022-12-31T04:41:43.584Z,646.00
2022-12-31T04:42:43.589Z,648.00
2022-12-31T04:43:43.554Z,648.00
2022-12-31T04:44:43.588Z,646.00
2022-12-31T04:45:43.579Z,645.00
2022-12-31T04:46:43.542Z,643.00
2022-12-31T04:47:43.554Z,646.00
2022-12-31T04:48:43.525Z,646.00
2022-12-31T04:49:43.508Z,646.00
2022-12-31T04:50:43.512Z,650.00
2022-12-31T04:51:43.526Z,654.00
2022-12-31T04:52:43.499Z,656.00
2022-12-31T04:53:43.513Z,658.00
2022-12-31T04:54:43.482Z,656.00
2022-12-31T04:55:43.500Z,656.00
2022-12-31T04:56:43.485Z,655.00
2022-12-31T04:57:43.447Z,656.00
2022-12-31T04:58:43.451Z,659.00
2022-12-31T04:59:43.445Z,658.00
2022-12-31T05:00:43.456Z,662.00
2022-12-31T05:01:43.490Z,664.00
2022-12-31T05:02:43.541Z,665.00
2022-12-31T05:03:43.400Z,669.00
2022-12-31T05:04:43.390Z,673.00
2022-12-31T05:05:43.403Z,677.00
2022-12-31T05:06:43.387Z,677.00
2022-12-31T05:07:43.385Z,678.00
2022-12-31T05:08:43.356Z,675.00
2022-12-31T05:09:43.353Z,677.00
2022-12-31T05:10:43.343Z,678.00
2022-12-31T05:11:43.424Z,679.00
2022-12-31T05:12:43.325Z,679.00
2022-12-31T05:13:43.359Z,679.00
2022-12-31T05:14:43.310Z,676.00
2022-12-31T05:15:43.347Z,676.00
2022-12-31T05:16:43.329Z,677.00
2022-12-31T05:17:43.340Z,681.00
2022-12-31T05:18:43.267Z,687.00
2022-12-31T05:19:43.310Z,690.00
2022-12-31T05:20:43.284Z,685.00
2022-12-31T05:21:43.266Z,684.00
2022-12-31T05:22:43.237Z,690.00
2022-12-31T05:23:43.261Z,692.00
2022-12-31T05:24:43.246Z,694.00
2022-12-31T05:25:43.237Z,696.00
2022-12-31T05:26:43.209Z,700.00
2022-12-31T05:27:43.280Z,701.00
2022-12-31T05:28:43.192Z,696.00
2022-12-31T05:29:43.182Z,694.00
2022-12-31T05:30:43.196Z,694.00
2022-12-31T05:31:43.182Z,695.00
2022-12-31T05:32:43.183Z,693.00
2022-12-31T05:33:43.146Z,691.00
2022-12-31T05:34:43.135Z,695.00
2022-12-31T05:35:43.121Z,697.00
2022-12-31T05:36:43.149Z,700.00
2022-12-31T05:37:43.134Z,704.00
2022-12-31T05:38:44.083Z,705.00
2022-12-31T05:39:43.094Z,700.00
2022-12-31T05:40:43.082Z,698.00
2022-12-31T05:41:43.110Z,696.00
2022-12-31T05:42:43.062Z,698.00
2022-12-31T05:43:43.055Z,699.00
2022-12-31T05:44:43.056Z,697.00
2022-12-31T05:45:43.076Z,698.00
2022-12-31T05:46:43.069Z,701.00
2022-12-31T05:47:43.022Z,702.00
2022-12-31T05:48:43.016Z,704.00
2022-12-31T05:49:43.006Z,708.00
2022-12-31T05:50:42.989Z,708.00
2022-12-31T05:51:42.984Z,708.00
2022-12-31T05:52:47.433Z,707.00
2022-12-31T05:53:42.973Z,707.00
2022-12-31T05:54:42.975Z,705.00
2022-12-31T05:55:42.950Z,705.00
2022-12-31T05:56:42.950Z,712.00
2022-12-31T05:57:42.962Z,713.00
2022-12-31T05:58:42.919Z,717.00
2022-12-31T05:59:42.948Z,720.00
2022-12-31T06:00:42.912Z,722.00
2022-12-31T06:01:42.913Z,722.00
2022-12-31T06:02:42.941Z,725.00
2022-12-31T06:03:42.926Z,725.00
2022-12-31T06:04:42.901Z,729.00
2022-12-31T06:05:42.941Z,729.00
2022-12-31T06:06:42.871Z,727.00
2022-12-31T06:07:42.878Z,730.00
2022-12-31T06:08:42.850Z,729.00
2022-12-31T06:09:42.839Z,726.00
2022-12-31T06:10:42.834Z,727.00
2022-12-31T06:11:42.832Z,727.00
2022-12-31T06:12:42.803Z,726.00
2022-12-31T06:13:42.808Z,727.00
2022-12-31T06:14:45.828Z,730.00
2022-12-31T06:15:42.838Z,728.00
2022-12-31T06:16:42.764Z,727.00
2022-12-31T06:17:42.764Z,729.00
2022-12-31T06:18:42.758Z,733.00
2022-12-31T06:19:42.753Z,738.00
2022-12-31T06:20:42.776Z,741.00
2022-12-31T06:21:42.728Z,738.00
2022-12-31T06:22:42.743Z,736.00
2022-12-31T06:23:42.706Z,736.00
2022-12-31T06:24:42.694Z,740.00
2022-12-31T06:25:42.706Z,743.00
2022-12-31T06:26:42.719Z,741.00
2022-12-31T06:27:42.680Z,737.00
2022-12-31T06:28:42.671Z,734.00
2022-12-31T06:29:42.649Z,737.00
2022-12-31T06:30:42.660Z,741.00
2022-12-31T06:31:42.663Z,740.00
2022-12-31T06:32:42.633Z,740.00
2022-12-31T06:33:42.623Z,746.00
2022-12-31T06:34:42.650Z,744.00
2022-12-31T06:35:42.605Z,745.00
2022-12-31T06:36:42.636Z,746.00
2022-12-31T06:37:42.592Z,745.00
2022-12-31T06:38:42.587Z,748.00
2022-12-31T06:39:42.566Z,748.00
2022-12-31T06:40:42.565Z,750.00
2022-12-31T06:41:42.601Z,753.00
2022-12-31T06:42:42.548Z,753.00
2022-12-31T06:43:42.568Z,751.00
2022-12-31T06:44:42.531Z,748.00
2022-12-31T06:45:42.527Z,748.00
2022-12-31T06:46:42.535Z,748.00
2022-12-31T06:47:42.534Z,748.00
2022-12-31T06:48:42.523Z,749.00
2022-12-31T06:49:42.478Z,753.00
2022-12-31T06:50:42.489Z,755.00
2022-12-31T06:51:42.495Z,757.00
2022-12-31T06:52:42.459Z,756.00
2022-12-31T06:53:42.443Z,756.00
2022-12-31T06:54:42.469Z,756.00
2022-12-31T06:55:42.430Z,756.00
2022-12-31T06:56:42.424Z,756.00
2022-12-31T06:57:42.421Z,757.00
2022-12-31T06:58:42.411Z,762.00
2022-12-31T06:59:42.425Z,760.00
2022-12-31T07:00:42.392Z,761.00
2022-12-31T07:01:42.489Z,764.00
2022-12-31T07:02:42.478Z,763.00
2022-12-31T07:03:42.381Z,761.00
2022-12-31T07:04:42.374Z,760.00
2022-12-31T07:05:42.349Z,762.00
2022-12-31T07:06:42.339Z,765.00
2022-12-31T07:07:42.356Z,766.00
2022-12-31T07:08:42.340Z,764.00
2022-12-31T07:09:42.307Z,763.00
2022-12-31T07:10:42.301Z,770.00
2022-12-31T07:11:42.300Z,769.00
2022-12-31T07:12:42.392Z,771.00
2022-12-31T07:13:42.309Z,775.00
2022-12-31T07:14:42.275Z,776.00
2022-12-31T07:15:42.307Z,776.00
2022-12-31T07:16:42.260Z,779.00
2022-12-31T07:17:42.259Z,778.00
2022-12-31T07:18:42.266Z,777.00
2022-12-31T07:19:42.243Z,774.00
2022-12-31T07:20:42.253Z,776.00
2022-12-31T07:21:42.217Z,781.00
2022-12-31T07:22:42.216Z,783.00
2022-12-31T07:23:42.206Z,782.00
2022-12-31T07:24:42.224Z,784.00
2022-12-31T07:25:42.205Z,786.00
2022-12-31T07:26:42.204Z,788.00
2022-12-31T07:27:42.187Z,788.00
2022-12-31T07:28:42.177Z,784.00
2022-12-31T07:29:42.145Z,780.00
2022-12-31T07:30:42.130Z,779.00
2022-12-31T07:31:42.159Z,782.00
2022-12-31T07:32:42.122Z,788.00
2022-12-31T07:33:42.120Z,786.00
2022-12-31T07:34:42.097Z,786.00
2022-12-31T07:35:42.105Z,788.00
2022-12-31T07:36:42.086Z,788.00
2022-12-31T07:37:42.065Z,787.00
2022-12-31T07:38:42.076Z,791.00
2022-12-31T07:39:42.065Z,793.00
2022-12-31T07:40:42.079Z,791.00
2022-12-31T07:41:42.030Z,791.00
2022-12-31T07:42:42.042Z,793.00
2022-12-31T07:43:42.035Z,794.00
2022-12-31T07:44:42.011Z,792.00
2022-12-31T07:45:42.048Z,795.00
2022-12-31T07:46:42.022Z,793.00
2022-12-31T07:47:41.978Z,791.00
2022-12-31T07:48:41.991Z,789.00
2022-12-31T07:49:42.007Z,790.00
2022-12-31T07:50:41.966Z,790.00
2022-12-31T07:51:41.988Z,789.00
2022-12-31T07:52:41.940Z,790.00
2022-12-31T07:53:41.927Z,789.00
2022-12-31T07:54:41.964Z,790.00
2022-12-31T07:55:41.917Z,791.00
2022-12-31T07:56:41.947Z,791.00
2022-12-31T07:57:41.896Z,791.00
2022-12-31T07:58:41.892Z,788.00
2022-12-31T07:59:41.873Z,786.00
2022-12-31T08:00:41.918Z,786.00
2022-12-31T08:01:42.091Z,784.00
2022-12-31T08:02:41.935Z,783.00
2022-12-31T08:03:41.860Z,786.00
2022-12-31T08:04:41.832Z,786.00
2022-12-31T08:05:41.846Z,784.00
2022-12-31T08:06:41.860Z,790.00
2022-12-31T08:07:41.815Z,792.00
2022-12-31T08:08:41.810Z,792.00
2022-12-31T08:09:41.790Z,790.00
2022-12-31T08:10:41.795Z,788.00
2022-12-31T08:11:41.779Z,786.00
2022-12-31T08:12:41.796Z,788.00
2022-12-31T08:13:41.769Z,787.00
2022-12-31T08:14:41.763Z,793.00
2022-12-31T08:15:41.776Z,793.00
2022-12-31T08:16:41.843Z,789.00
2022-12-31T08:17:41.721Z,788.00
2022-12-31T08:18:41.717Z,789.00
2022-12-31T08:19:41.706Z,790.00
2022-12-31T08:20:41.694Z,788.00
2022-12-31T08:21:41.708Z,786.00
2022-12-31T08:22:41.705Z,785.00
2022-12-31T08:23:41.666Z,786.00
2022-12-31T08:24:41.662Z,789.00
2022-12-31T08:25:41.683Z,789.00
2022-12-31T08:26:41.653Z,787.00
2022-12-31T08:27:41.658Z,786.00
2022-12-31T08:28:41.630Z,788.00
2022-12-31T08:29:41.624Z,789.00
2022-12-31T08:30:41.650Z,788.00
2022-12-31T08:31:41.624Z,787.00
2022-12-31T08:32:41.630Z,787.00
2022-12-31T08:33:41.607Z,785.00
2022-12-31T08:34:41.677Z,784.00
2022-12-31T08:35:41.580Z,782.00
2022-12-31T08:36:41.570Z,783.00
2022-12-31T08:37:41.572Z,786.00
2022-12-31T08:38:41.548Z,784.00
2022-12-31T08:39:41.590Z,786.00
2022-12-31T08:40:41.546Z,790.00
2022-12-31T08:41:43.133Z,791.00
2022-12-31T08:42:41.539Z,794.00
2022-12-31T08:43:41.506Z,794.00
2022-12-31T08:44:41.529Z,791.00
2022-12-31T08:45:41.537Z,794.00
2022-12-31T08:46:41.474Z,795.00
2022-12-31T08:47:41.505Z,792.00
2022-12-31T08:48:41.467Z,792.00
2022-12-31T08:49:41.458Z,792.00
2022-12-31T08:50:41.444Z,791.00
2022-12-31T08:51:41.444Z,790.00
2022-12-31T08:52:41.449Z,791.00
2022-12-31T08:53:41.432Z,789.00
2022-12-31T08:54:41.399Z,792.00
2022-12-31T08:55:41.410Z,793.00
2022-12-31T08:56:43.725Z,796.00
2022-12-31T08:57:42.408Z,799.00
2022-12-31T08:58:41.365Z,799.00
2022-12-31T08:59:41.365Z,802.00
2022-12-31T09:00:41.369Z,802.00
2022-12-31T09:01:41.440Z,801.00
2022-12-31T09:02:47.766Z,805.00
2022-12-31T09:03:42.368Z,805.00
2022-12-31T09:04:41.322Z,809.00
2022-12-31T09:05:41.320Z,807.00
2022-12-31T09:06:41.311Z,807.00
2022-12-31T09:07:41.328Z,805.00
2022-12-31T09:08:41.307Z,805.00
2022-12-31T09:09:41.280Z,802.00
2022-12-31T09:10:41.307Z,800.00
2022-12-31T09:11:41.260Z,798.00
2022-12-31T09:12:41.249Z,798.00
2022-12-31T09:13:41.259Z,799.00
2022-12-31T09:14:41.243Z,812.00
2022-12-31T09:15:41.238Z,840.00
2022-12-31T09:16:41.240Z,847.00
2022-12-31T09:17:41.244Z,848.00
2022-12-31T09:18:41.215Z,845.00
2022-12-31T09:19:41.197Z,1135.00
2022-12-31T09:20:43.875Z,867.00
2022-12-31T09:21:41.174Z,846.00
2022-12-31T09:22:41.193Z,852.00
2022-12-31T09:23:41.174Z,847.00
2022-12-31T09:24:41.158Z,847.00
2022-12-31T09:25:41.137Z,849.00
2022-12-31T09:26:41.175Z,851.00
2022-12-31T09:27:41.115Z,853.00
2022-12-31T09:28:41.133Z,853.00
2022-12-31T09:29:41.108Z,853.00
2022-12-31T09:30:41.097Z,860.00
2022-12-31T09:31:41.111Z,861.00
2022-12-31T09:32:41.098Z,947.00
2022-12-31T09:33:41.099Z,1079.00
2022-12-31T09:34:41.061Z,991.00
2022-12-31T09:35:41.053Z,1050.00
2022-12-31T09:36:41.068Z,1041.00
2022-12-31T09:37:41.065Z,1042.00
2022-12-31T09:38:41.022Z,1046.00
2022-12-31T09:39:41.048Z,1053.00
2022-12-31T09:40:41.016Z,1057.00
2022-12-31T09:41:41.012Z,1058.00
2022-12-31T09:42:41.019Z,1058.00
2022-12-31T09:43:41.012Z,1063.00
2022-12-31T09:44:40.969Z,1065.00
2022-12-31T09:45:41.017Z,1078.00
2022-12-31T09:46:40.951Z,1086.00
2022-12-31T09:47:40.945Z,1078.00
2022-12-31T09:48:40.971Z,1069.00
2022-12-31T09:49:40.968Z,1082.00
2022-12-31T09:50:40.921Z,1091.00
2022-12-31T09:51:40.928Z,1095.00
2022-12-31T09:52:40.927Z,1102.00
2022-12-31T09:53:40.886Z,1109.00
2022-12-31T09:54:40.889Z,1068.00
2022-12-31T09:55:40.907Z,1065.00
2022-12-31T09:56:40.877Z,1067.00
2022-12-31T09:57:40.880Z,1063.00
2022-12-31T09:58:40.870Z,1070.00
2022-12-31T09:59:40.867Z,1086.00
2022-12-31T10:00:40.841Z,1078.00
2022-12-31T10:01:40.877Z,1074.00
2022-12-31T10:02:40.975Z,1060.00
2022-12-31T10:03:40.847Z,1043.00
2022-12-31T10:04:40.809Z,1033.00
2022-12-31T10:05:40.811Z,1021.00
2022-12-31T10:06:40.780Z,1017.00
2022-12-31T10:07:40.782Z,1014.00
2022-12-31T10:08:40.770Z,1013.00
2022-12-31T10:09:40.780Z,1012.00
2022-12-31T10:10:40.748Z,1010.00
2022-12-31T10:11:40.732Z,1013.00
2022-12-31T10:12:40.761Z,1009.00
2022-12-31T10:13:40.731Z,1005.00
2022-12-31T10:14:46.963Z,1006.00
2022-12-31T10:15:41.708Z,1008.00
2022-12-31T10:16:40.790Z,1011.00
2022-12-31T10:17:40.719Z,1016.00
2022-12-31T10:18:40.682Z,1020.00
2022-12-31T10:19:40.671Z,1014.00
2022-12-31T10:20:45.336Z,1009.00
2022-12-31T10:21:41.665Z,1005.00
2022-12-31T10:22:40.756Z,1000.00
2022-12-31T10:23:40.663Z,996.00
2022-12-31T10:24:40.632Z,990.00
2022-12-31T10:25:40.626Z,981.00
2022-12-31T10:26:40.609Z,975.00
2022-12-31T10:27:40.628Z,981.00
2022-12-31T10:28:40.605Z,981.00
2022-12-31T10:29:40.619Z,987.00
2022-12-31T10:30:40.618Z,983.00
2022-12-31T10:31:40.590Z,975.00
2022-12-31T10:32:40.568Z,922.00
2022-12-31T10:33:40.554Z,909.00
2022-12-31T10:34:40.534Z,897.00
2022-12-31T10:35:40.541Z,894.00
2022-12-31T10:36:40.548Z,882.00
2022-12-31T10:37:40.541Z,865.00
2022-12-31T10:38:40.512Z,866.00
2022-12-31T10:39:40.542Z,876.00
2022-12-31T10:40:40.927Z,880.00
2022-12-31T10:41:40.495Z,886.00
2022-12-31T10:42:40.495Z,880.00
2022-12-31T10:43:40.467Z,877.00
2022-12-31T10:44:40.470Z,875.00
2022-12-31T10:45:40.451Z,877.00
2022-12-31T10:46:40.501Z,875.00
2022-12-31T10:47:40.431Z,873.00
2022-12-31T10:48:40.434Z,868.00
2022-12-31T10:49:40.422Z,868.00
2022-12-31T10:50:40.420Z,871.00
2022-12-31T10:51:40.428Z,871.00
2022-12-31T10:52:42.171Z,864.00
2022-12-31T10:53:40.374Z,863.00
2022-12-31T10:54:40.416Z,862.00
2022-12-31T10:55:40.367Z,859.00
2022-12-31T10:56:40.381Z,856.00
2022-12-31T10:57:40.369Z,851.00
2022-12-31T10:58:40.328Z,851.00
2022-12-31T10:59:40.421Z,844.00
2022-12-31T11:00:40.316Z,840.00
2022-12-31T11:01:40.366Z,840.00
2022-12-31T11:02:40.444Z,839.00
2022-12-31T11:03:40.401Z,837.00
2022-12-31T11:04:40.288Z,839.00
2022-12-31T11:05:40.307Z,835.00
2022-12-31T11:06:40.272Z,831.00
2022-12-31T11:07:40.268Z,829.00
2022-12-31T11:08:40.254Z,837.00
2022-12-31T11:09:40.258Z,834.00
2022-12-31T11:10:40.234Z,833.00
2022-12-31T11:11:40.222Z,834.00
2022-12-31T11:12:40.238Z,833.00
2022-12-31T11:13:40.217Z,829.00
2022-12-31T11:14:40.232Z,826.00
2022-12-31T11:15:43.882Z,831.00
2022-12-31T11:16:41.196Z,832.00
2022-12-31T11:17:40.175Z,826.00
2022-12-31T11:18:40.166Z,826.00
2022-12-31T11:19:40.153Z,824.00
2022-12-31T11:20:40.165Z,823.00
2022-12-31T11:21:41.773Z,819.00
2022-12-31T11:22:40.127Z,818.00
2022-12-31T11:23:40.120Z,822.00
2022-12-31T11:24:40.119Z,821.00
2022-12-31T11:25:40.160Z,823.00
2022-12-31T11:26:40.095Z,816.00
2022-12-31T11:27:41.801Z,814.00
2022-12-31T11:28:40.079Z,814.00
2022-12-31T11:29:40.064Z,816.00
2022-12-31T11:30:40.128Z,814.00
2022-12-31T11:31:40.077Z,814.00
2022-12-31T11:32:40.057Z,811.00
2022-12-31T11:33:42.991Z,812.00
2022-12-31T11:34:41.030Z,811.00
2022-12-31T11:35:40.021Z,805.00
2022-12-31T11:36:40.009Z,806.00
2022-12-31T11:37:40.004Z,803.00
2022-12-31T11:38:39.995Z,804.00
2022-12-31T11:39:39.994Z,799.00
2022-12-31T11:40:39.970Z,796.00
2022-12-31T11:41:39.971Z,793.00
2022-12-31T11:42:39.964Z,797.00
2022-12-31T11:43:39.967Z,798.00
2022-12-31T11:44:39.960Z,795.00
2022-12-31T11:45:43.165Z,801.00
2022-12-31T11:46:40.929Z,791.00
2022-12-31T11:48:03.900Z,785.00
2022-12-31T11:48:40.932Z,783.00
2022-12-31T11:49:39.904Z,782.00
2022-12-31T11:50:39.902Z,785.00
2022-12-31T11:51:40.693Z,786.00
2022-12-31T11:52:39.878Z,783.00
2022-12-31T11:53:39.872Z,781.00
2022-12-31T11:54:39.878Z,783.00
2022-12-31T11:55:39.838Z,776.00
2022-12-31T11:56:39.826Z,775.00
2022-12-31T11:57:39.856Z,777.00
2022-12-31T11:58:39.828Z,781.00
2022-12-31T11:59:39.822Z,784.00
2022-12-31T12:00:39.820Z,783.00
2022-12-31T12:01:39.850Z,784.00
2022-12-31T12:02:39.804Z,782.00
2022-12-31T12:03:39.807Z,782.00
2022-12-31T12:04:39.774Z,779.00
2022-12-31T12:05:39.775Z,778.00
2022-12-31T12:06:39.740Z,775.00
2022-12-31T12:07:39.747Z,776.00
2022-12-31T12:08:39.738Z,778.00
2022-12-31T12:09:39.754Z,769.00
2022-12-31T12:10:39.721Z,765.00
2022-12-31T12:11:39.709Z,764.00
2022-12-31T12:12:39.698Z,765.00
2022-12-31T12:13:39.753Z,765.00
2022-12-31T12:14:39.672Z,766.00
2022-12-31T12:15:39.711Z,764.00
2022-12-31T12:16:39.711Z,759.00
2022-12-31T12:17:39.662Z,757.00
2022-12-31T12:18:39.640Z,754.00
2022-12-31T12:19:39.658Z,748.00
2022-12-31T12:20:39.625Z,747.00
2022-12-31T12:21:39.619Z,743.00
2022-12-31T12:22:40.499Z,744.00
2022-12-31T12:23:39.641Z,743.00
2022-12-31T12:24:39.618Z,739.00
2022-12-31T12:25:39.587Z,742.00
2022-12-31T12:26:39.582Z,741.00